Wheeler, Michigan
Current Conditions -  °F | °C
As of 1:13 AM on Sunday 26 Oct 2014 (Local Time) from KAMN Reporting Station
Clear Clear  
Wind Chill: 45°   Ceiling: Unl
Heat Index: 49°   Visibility: 10mi
Dew Point: 30°   Wind: 10mph
Humidity: 48%   Direction: 280°W
Pressure: 29.85"   Gusts: NA
Location:  43.41°N, 84.44°W
Report Text: KAMN 260513Z AUTO 28009KT 10SM CLR 10/M01 A2985 RMK AO2 T00961009
Loading
Personal Weather Stations






























Interactive Weather Map
Tropical Storm Tracking
New forecast layout! Learn more

10-Day Weather Forecast

Advertisements
Track Severe Weather on mobile